createdAt,value
2022-10-24T00:00:15.677Z,100.00
2022-10-24T00:03:02.601Z,100.00
2022-10-24T00:05:29.317Z,100.00
2022-10-24T00:07:56.010Z,100.00
2022-10-24T00:10:22.987Z,100.00
2022-10-24T00:12:49.626Z,100.00
2022-10-24T00:15:16.388Z,100.00
2022-10-24T00:17:43.103Z,100.00
2022-10-24T00:20:13.601Z,100.00
2022-10-24T00:22:40.393Z,100.00
2022-10-24T00:25:07.394Z,100.00
2022-10-24T00:27:35.645Z,100.00
2022-10-24T00:30:04.833Z,100.00
2022-10-24T00:32:32.109Z,100.00
2022-10-24T00:34:58.714Z,100.00
2022-10-24T00:37:25.356Z,100.00
2022-10-24T00:39:52.026Z,100.00
2022-10-24T00:42:18.638Z,100.00
2022-10-24T00:44:46.139Z,100.00
2022-10-24T00:47:17.232Z,100.00
2022-10-24T00:50:12.235Z,100.00
2022-10-24T00:52:44.566Z,100.00
2022-10-24T00:55:12.956Z,100.00
2022-10-24T00:57:43.562Z,100.00
2022-10-24T01:00:18.254Z,100.00
2022-10-24T01:02:45.604Z,100.00
2022-10-24T01:05:14.032Z,100.00
2022-10-24T01:08:14.393Z,100.00
2022-10-24T01:10:48.175Z,100.00
2022-10-24T01:13:45.908Z,100.00
2022-10-24T01:16:20.970Z,100.00
2022-10-24T01:18:57.423Z,100.00
2022-10-24T01:21:34.784Z,100.00
2022-10-24T01:24:07.046Z,100.00
2022-10-24T01:26:51.874Z,100.00
2022-10-24T01:29:35.361Z,100.00
2022-10-24T01:32:32.465Z,100.00
2022-10-24T01:35:23.866Z,100.00
2022-10-24T01:38:12.380Z,100.00
2022-10-24T01:40:55.667Z,100.00
2022-10-24T01:43:34.107Z,100.00
2022-10-24T01:46:05.077Z,100.00
2022-10-24T01:48:37.908Z,100.00
2022-10-24T01:51:07.043Z,100.00
2022-10-24T01:53:36.295Z,100.00
2022-10-24T01:56:03.061Z,100.00
2022-10-24T01:58:29.745Z,100.00
2022-10-24T02:01:01.362Z,100.00
2022-10-24T02:03:36.115Z,100.00
2022-10-24T02:06:26.043Z,100.00
2022-10-24T02:09:00.416Z,100.00
2022-10-24T02:11:27.211Z,100.00
2022-10-24T02:14:02.153Z,100.00
2022-10-24T02:16:29.387Z,100.00
2022-10-24T02:18:58.077Z,100.00
2022-10-24T02:21:41.872Z,100.00
2022-10-24T02:24:32.809Z,100.00
2022-10-24T02:27:05.381Z,100.00
2022-10-24T02:29:38.061Z,100.00
2022-10-24T02:32:09.332Z,100.00
2022-10-24T02:34:39.252Z,100.00
2022-10-24T02:37:08.194Z,100.00
2022-10-24T02:39:37.673Z,100.00
2022-10-24T02:42:06.505Z,100.00
2022-10-24T02:44:34.609Z,100.00
2022-10-24T02:47:04.704Z,100.00
2022-10-24T02:49:31.452Z,100.00
2022-10-24T02:51:59.724Z,100.00
2022-10-24T02:54:26.356Z,100.00
2022-10-24T02:56:59.279Z,100.00
2022-10-24T02:59:25.911Z,100.00
2022-10-24T03:01:52.650Z,100.00
2022-10-24T03:04:19.513Z,100.00
2022-10-24T03:06:46.633Z,100.00
2022-10-24T03:09:13.387Z,100.00
2022-10-24T03:11:40.738Z,100.00
2022-10-24T03:14:07.419Z,100.00
2022-10-24T03:16:34.071Z,100.00
2022-10-24T03:19:00.721Z,100.00
2022-10-24T03:21:27.426Z,100.00
2022-10-24T03:23:54.183Z,100.00
2022-10-24T03:26:20.881Z,100.00
2022-10-24T03:28:47.531Z,100.00
2022-10-24T03:31:14.172Z,100.00
2022-10-24T03:33:40.835Z,100.00
2022-10-24T03:36:08.008Z,100.00
2022-10-24T03:38:34.670Z,100.00
2022-10-24T03:41:01.322Z,100.00
2022-10-24T03:43:27.943Z,100.00
2022-10-24T03:45:54.776Z,100.00
2022-10-24T03:48:29.605Z,100.00
2022-10-24T03:50:56.255Z,100.00
2022-10-24T03:53:22.969Z,100.00
2022-10-24T03:55:49.590Z,100.00
2022-10-24T03:58:16.773Z,100.00
2022-10-24T04:00:43.537Z,100.00
2022-10-24T04:03:10.255Z,100.00
2022-10-24T04:05:37.191Z,100.00
2022-10-24T04:08:04.065Z,100.00
2022-10-24T04:10:30.833Z,100.00
2022-10-24T04:12:57.498Z,100.00
2022-10-24T04:15:24.428Z,100.00
2022-10-24T04:17:51.108Z,100.00
2022-10-24T04:20:20.045Z,100.00
2022-10-24T04:22:47.202Z,100.00
2022-10-24T04:25:14.955Z,100.00
2022-10-24T04:27:41.824Z,100.00
2022-10-24T04:30:16.344Z,100.00
2022-10-24T04:32:44.288Z,100.00
2022-10-24T04:35:11.782Z,100.00
2022-10-24T04:37:38.432Z,100.00
2022-10-24T04:40:06.321Z,100.00
2022-10-24T04:42:33.036Z,100.00
2022-10-24T04:44:59.895Z,100.00
2022-10-24T04:47:26.621Z,100.00
2022-10-24T04:49:53.321Z,100.00
2022-10-24T04:52:19.936Z,100.00
2022-10-24T04:54:46.575Z,100.00
2022-10-24T04:57:13.248Z,100.00
2022-10-24T04:59:39.968Z,100.00
2022-10-24T05:02:06.671Z,100.00
2022-10-24T05:04:33.624Z,100.00
2022-10-24T05:07:01.005Z,100.00
2022-10-24T05:09:27.589Z,100.00
2022-10-24T05:11:57.358Z,100.00
2022-10-24T05:14:24.523Z,100.00
2022-10-24T05:16:51.192Z,100.00
2022-10-24T05:19:19.114Z,100.00
2022-10-24T05:21:46.116Z,100.00
2022-10-24T05:24:13.019Z,100.00
2022-10-24T05:26:39.661Z,100.00
2022-10-24T05:31:37.874Z,100.00
2022-10-24T05:34:04.636Z,100.00
2022-10-24T05:36:31.651Z,100.00
2022-10-24T05:38:58.297Z,100.00
2022-10-24T05:41:25.293Z,100.00
2022-10-24T05:43:52.031Z,100.00
2022-10-24T05:46:18.745Z,100.00
2022-10-24T05:48:45.366Z,100.00
2022-10-24T05:51:12.027Z,100.00
2022-10-24T05:53:38.761Z,100.00
2022-10-24T05:56:05.975Z,100.00
2022-10-24T05:58:33.045Z,100.00
2022-10-24T06:01:00.432Z,100.00
2022-10-24T06:03:27.128Z,100.00
2022-10-24T06:05:53.742Z,100.00
2022-10-24T06:08:20.353Z,100.00
2022-10-24T06:10:51.421Z,100.00
2022-10-24T06:13:18.067Z,100.00
2022-10-24T06:15:45.306Z,100.00
2022-10-24T06:18:11.940Z,100.00
2022-10-24T06:20:38.880Z,100.00
2022-10-24T06:23:05.631Z,100.00
2022-10-24T06:25:32.314Z,100.00
2022-10-24T06:27:59.348Z,100.00
2022-10-24T06:30:26.239Z,100.00
2022-10-24T06:32:52.953Z,100.00
2022-10-24T06:35:19.645Z,100.00
2022-10-24T06:37:48.138Z,100.00
2022-10-24T06:40:17.101Z,100.00
2022-10-24T06:42:44.769Z,100.00
2022-10-24T06:45:11.697Z,100.00
2022-10-24T06:47:38.409Z,100.00
2022-10-24T06:50:06.064Z,100.00
2022-10-24T06:52:32.696Z,100.00
2022-10-24T06:54:59.526Z,100.00
2022-10-24T06:57:26.372Z,100.00
2022-10-24T06:59:53.222Z,100.00
2022-10-24T07:02:20.071Z,100.00
2022-10-24T07:04:46.825Z,100.00
2022-10-24T07:07:18.484Z,100.00
2022-10-24T07:09:50.815Z,100.00
2022-10-24T07:12:17.609Z,100.00
2022-10-24T07:14:44.221Z,100.00
2022-10-24T07:17:10.860Z,100.00
2022-10-24T07:19:37.615Z,100.00
2022-10-24T07:22:04.867Z,100.00
2022-10-24T07:24:31.488Z,100.00
2022-10-24T07:26:58.080Z,100.00
2022-10-24T07:29:24.932Z,100.00
2022-10-24T07:31:51.624Z,100.00
2022-10-24T07:34:18.414Z,100.00
2022-10-24T07:36:45.126Z,100.00
2022-10-24T07:39:13.139Z,100.00
2022-10-24T07:41:41.312Z,100.00
2022-10-24T07:44:09.743Z,100.00
2022-10-24T07:46:36.655Z,100.00
2022-10-24T07:49:03.326Z,100.00
2022-10-24T07:51:31.218Z,100.00
2022-10-24T07:53:58.399Z,100.00
2022-10-24T07:56:25.115Z,100.00
2022-10-24T07:58:51.843Z,100.00
2022-10-24T08:01:21.626Z,100.00
2022-10-24T08:03:49.108Z,100.00
2022-10-24T08:06:20.326Z,100.00
2022-10-24T08:08:47.457Z,100.00
2022-10-24T08:11:17.508Z,100.00
2022-10-24T08:13:44.963Z,100.00
2022-10-24T08:16:13.993Z,100.00
2022-10-24T08:18:40.740Z,100.00
2022-10-24T08:21:12.837Z,100.00
2022-10-24T08:23:42.428Z,100.00
2022-10-24T08:26:12.893Z,100.00
2022-10-24T08:28:40.299Z,100.00
2022-10-24T08:31:10.781Z,100.00
2022-10-24T08:33:38.107Z,100.00
2022-10-24T08:36:13.112Z,98.02
2022-10-24T08:38:39.793Z,97.54
2022-10-24T08:41:09.494Z,96.39
2022-10-24T08:43:36.359Z,90.58
2022-10-24T08:46:12.186Z,92.56
2022-10-24T08:48:52.094Z,87.79
2022-10-24T08:51:21.419Z,82.31
2022-10-24T08:53:51.978Z,81.56
2022-10-24T08:56:18.769Z,83.09
2022-10-24T08:58:46.618Z,78.68
2022-10-24T09:01:27.692Z,75.16
2022-10-24T09:03:56.899Z,72.38
2022-10-24T09:06:29.912Z,75.43
2022-10-24T09:09:10.225Z,78.39
2022-10-24T09:11:51.830Z,70.68
2022-10-24T09:14:38.235Z,68.24
2022-10-24T09:17:23.083Z,75.11
2022-10-24T09:19:53.141Z,69.55
2022-10-24T09:22:22.206Z,63.81
2022-10-24T09:24:57.454Z,68.10
2022-10-24T09:27:29.115Z,65.20
2022-10-24T09:29:58.037Z,61.92
2022-10-24T09:32:30.029Z,64.56
2022-10-24T09:35:03.084Z,66.65
2022-10-24T09:37:36.513Z,59.83
2022-10-24T09:40:08.439Z,58.28
2022-10-24T09:42:38.116Z,59.76
2022-10-24T09:45:25.716Z,58.95
2022-10-24T09:48:02.624Z,58.85
2022-10-24T09:50:33.957Z,54.93
2022-10-24T09:53:02.898Z,52.87
2022-10-24T09:55:31.491Z,50.02
2022-10-24T09:58:03.521Z,45.36
2022-10-24T10:00:34.405Z,47.78
2022-10-24T10:03:23.539Z,49.78
2022-10-24T10:05:56.380Z,45.96
2022-10-24T10:08:29.518Z,47.33
2022-10-24T10:11:05.986Z,45.39
2022-10-24T10:13:53.279Z,45.10
2022-10-24T10:16:23.798Z,45.88
2022-10-24T10:19:00.584Z,44.96
2022-10-24T10:21:27.405Z,45.77
2022-10-24T10:23:56.227Z,47.10
2022-10-24T10:26:41.305Z,43.30
2022-10-24T10:29:17.676Z,41.75
2022-10-24T10:32:02.240Z,41.45
2022-10-24T10:34:42.587Z,42.07
2022-10-24T10:37:27.920Z,42.22
2022-10-24T10:40:22.622Z,41.18
2022-10-24T10:43:15.588Z,39.19
2022-10-24T10:45:47.910Z,41.54
2022-10-24T10:48:32.327Z,39.93
2022-10-24T10:51:11.372Z,40.20
2022-10-24T10:54:06.211Z,38.76
2022-10-24T10:56:53.604Z,37.65
2022-10-24T10:59:29.295Z,38.65
2022-10-24T11:02:27.446Z,38.92
2022-10-24T11:05:21.972Z,38.07
2022-10-24T11:08:10.101Z,35.77
2022-10-24T11:11:03.214Z,36.04
2022-10-24T11:13:40.045Z,37.98
2022-10-24T11:16:13.041Z,37.92
2022-10-24T11:18:44.313Z,36.93
2022-10-24T11:21:14.175Z,36.97
2022-10-24T11:23:48.885Z,35.08
2022-10-24T11:26:35.503Z,35.46
2022-10-24T11:29:22.031Z,34.36
2022-10-24T11:32:17.324Z,34.54
2022-10-24T11:34:56.329Z,35.37
2022-10-24T11:37:38.264Z,36.04
2022-10-24T11:40:21.168Z,35.22
2022-10-24T11:43:15.592Z,34.48
2022-10-24T11:45:58.872Z,34.50
2022-10-24T11:48:31.303Z,35.12
2022-10-24T11:51:27.425Z,34.33
2022-10-24T11:53:59.494Z,35.62
2022-10-24T11:56:42.454Z,35.03
2022-10-24T11:59:18.293Z,34.64
2022-10-24T12:01:50.819Z,35.46
2022-10-24T12:04:36.405Z,35.43
2022-10-24T12:07:24.419Z,36.99
2022-10-24T12:10:19.323Z,36.79
2022-10-24T12:13:17.647Z,37.71
2022-10-24T12:16:13.844Z,39.83
2022-10-24T12:18:45.656Z,40.33
2022-10-24T12:21:19.301Z,40.87
2022-10-24T12:23:57.290Z,40.81
2022-10-24T12:26:29.194Z,38.60
2022-10-24T12:29:07.091Z,39.52
2022-10-24T12:31:37.333Z,38.73
2022-10-24T12:34:18.879Z,38.58
2022-10-24T12:37:08.976Z,36.66
2022-10-24T12:39:39.148Z,36.65
2022-10-24T12:42:32.763Z,35.48
2022-10-24T12:44:59.495Z,37.04
2022-10-24T12:47:38.180Z,35.74
2022-10-24T12:50:20.511Z,34.31
2022-10-24T12:52:48.253Z,35.25
2022-10-24T12:55:39.336Z,36.66
2022-10-24T12:58:30.951Z,35.76
2022-10-24T13:00:59.565Z,35.60
2022-10-24T13:03:41.862Z,36.43
2022-10-24T13:06:43.046Z,35.63
2022-10-24T13:09:12.666Z,36.00
2022-10-24T13:11:52.187Z,36.28
2022-10-24T13:14:53.001Z,37.52
2022-10-24T13:17:47.705Z,37.96
2022-10-24T13:20:21.364Z,37.74
2022-10-24T13:22:50.426Z,37.40
2022-10-24T13:25:34.462Z,37.94
2022-10-24T13:28:18.940Z,39.10
2022-10-24T13:30:49.586Z,39.21
2022-10-24T13:33:28.268Z,39.33
2022-10-24T13:36:05.379Z,38.54
2022-10-24T13:38:34.177Z,38.90
2022-10-24T13:41:03.584Z,39.22
2022-10-24T13:43:30.415Z,39.46
2022-10-24T13:46:08.362Z,39.35
2022-10-24T13:48:47.263Z,38.58
2022-10-24T13:51:21.085Z,39.54
2022-10-24T13:54:25.822Z,39.17
2022-10-24T13:56:52.480Z,39.93
2022-10-24T13:59:36.744Z,39.72
2022-10-24T14:02:14.262Z,39.55
2022-10-24T14:04:46.338Z,38.84
2022-10-24T14:07:20.475Z,39.33
2022-10-24T14:10:12.697Z,39.96
2022-10-24T14:12:40.392Z,40.89
2022-10-24T14:15:19.223Z,40.99
2022-10-24T14:17:58.088Z,41.07
2022-10-24T14:20:29.047Z,41.88
2022-10-24T14:22:56.103Z,42.37
2022-10-24T14:25:29.594Z,43.44
2022-10-24T14:27:59.998Z,44.39
2022-10-24T14:30:34.442Z,45.26
2022-10-24T14:33:07.192Z,45.89
2022-10-24T14:35:34.413Z,46.49
2022-10-24T14:38:03.941Z,47.28
2022-10-24T14:40:33.817Z,48.84
2022-10-24T14:43:00.508Z,50.15
2022-10-24T14:45:29.950Z,52.33
2022-10-24T14:48:00.070Z,54.33
2022-10-24T14:50:42.807Z,56.69
2022-10-24T14:53:30.435Z,57.76
2022-10-24T14:55:59.506Z,61.61
2022-10-24T14:58:33.027Z,63.72
2022-10-24T15:01:00.138Z,65.49
2022-10-24T15:03:28.170Z,68.03
2022-10-24T15:05:54.822Z,70.34
2022-10-24T15:08:27.597Z,71.85
2022-10-24T15:11:21.250Z,73.25
2022-10-24T15:14:05.554Z,74.65
2022-10-24T15:16:39.095Z,75.44
2022-10-24T15:19:13.437Z,76.55
2022-10-24T15:21:42.586Z,75.93
2022-10-24T15:24:21.994Z,77.89
2022-10-24T15:26:49.037Z,78.57
2022-10-24T15:29:21.561Z,79.39
2022-10-24T15:31:50.810Z,80.10
2022-10-24T15:34:20.470Z,80.91
2022-10-24T15:36:49.541Z,80.34
2022-10-24T15:39:24.263Z,80.26
2022-10-24T15:41:52.365Z,79.82
2022-10-24T15:44:26.064Z,79.95
2022-10-24T15:46:53.746Z,79.56
2022-10-24T15:49:20.457Z,79.44
2022-10-24T15:51:50.432Z,80.26
2022-10-24T15:54:21.159Z,80.97
2022-10-24T15:56:48.822Z,81.15
2022-10-24T15:59:17.131Z,81.73
2022-10-24T16:01:49.111Z,81.41
2022-10-24T16:04:16.766Z,82.07
2022-10-24T16:06:43.508Z,81.89
2022-10-24T16:09:14.907Z,82.91
2022-10-24T16:11:41.817Z,82.86
2022-10-24T16:14:13.885Z,83.55
2022-10-24T16:16:40.594Z,83.08
2022-10-24T16:19:09.004Z,83.43
2022-10-24T16:21:36.135Z,83.78
2022-10-24T16:24:03.388Z,83.16
2022-10-24T16:26:30.019Z,83.19
2022-10-24T16:28:56.683Z,83.29
2022-10-24T16:31:23.581Z,82.91
2022-10-24T16:33:51.370Z,83.08
2022-10-24T16:36:20.816Z,83.40
2022-10-24T16:38:51.198Z,83.73
2022-10-24T16:41:21.449Z,83.74
2022-10-24T16:43:49.929Z,83.66
2022-10-24T16:46:19.927Z,83.53
2022-10-24T16:48:47.353Z,82.96
2022-10-24T16:51:22.863Z,83.07
2022-10-24T16:53:49.726Z,82.98
2022-10-24T16:56:16.846Z,83.26
2022-10-24T16:58:44.177Z,83.15
2022-10-24T17:01:13.245Z,82.86
2022-10-24T17:03:40.923Z,82.97
2022-10-24T17:06:08.643Z,83.01
2022-10-24T17:08:35.785Z,82.99
2022-10-24T17:11:03.247Z,83.08
2022-10-24T17:13:29.951Z,83.78
2022-10-24T17:15:57.154Z,83.73
2022-10-24T17:18:26.122Z,84.35
2022-10-24T17:20:59.633Z,84.92
2022-10-24T17:23:28.644Z,81.46
2022-10-24T17:25:59.402Z,82.40
2022-10-24T17:28:32.330Z,83.37
2022-10-24T17:31:00.367Z,84.38
2022-10-24T17:33:27.261Z,84.65
2022-10-24T17:35:56.211Z,84.61
2022-10-24T17:38:32.350Z,84.05
2022-10-24T17:41:09.199Z,84.14
2022-10-24T17:43:36.099Z,84.80
2022-10-24T17:46:02.975Z,84.72
2022-10-24T17:48:30.008Z,85.18
2022-10-24T17:50:58.136Z,85.94
2022-10-24T17:53:24.829Z,86.94
2022-10-24T17:55:51.615Z,87.53
2022-10-24T17:58:18.791Z,88.00
2022-10-24T18:00:45.906Z,88.62
2022-10-24T18:03:13.765Z,88.59
2022-10-24T18:05:41.086Z,88.59
2022-10-24T18:08:09.335Z,88.62
2022-10-24T18:10:37.556Z,88.32
2022-10-24T18:13:04.938Z,88.44
2022-10-24T18:15:31.784Z,88.49
2022-10-24T18:17:58.350Z,88.53
2022-10-24T18:20:24.941Z,88.02
2022-10-24T18:22:51.664Z,88.13
2022-10-24T18:25:21.992Z,88.60
2022-10-24T18:27:50.670Z,88.80
2022-10-24T18:30:21.696Z,88.89
2022-10-24T18:32:48.589Z,88.48
2022-10-24T18:35:15.423Z,88.62
2022-10-24T18:37:42.092Z,88.63
2022-10-24T18:40:09.581Z,88.23
2022-10-24T18:43:00.638Z,88.59
2022-10-24T18:45:27.939Z,88.77
2022-10-24T18:47:55.112Z,89.43
2022-10-24T18:50:24.431Z,89.16
2022-10-24T18:53:06.645Z,88.46
2022-10-24T18:55:34.923Z,84.68
2022-10-24T18:58:02.298Z,84.38
2022-10-24T19:00:31.380Z,84.59
2022-10-24T19:03:23.125Z,85.55
2022-10-24T19:05:55.757Z,85.73
2022-10-24T19:08:24.687Z,85.94
2022-10-24T19:10:55.280Z,85.97
2022-10-24T19:13:23.918Z,86.19
2022-10-24T19:15:59.621Z,86.43
2022-10-24T19:18:29.340Z,85.53
2022-10-24T19:20:56.034Z,84.46
2022-10-24T19:23:24.113Z,83.94
2022-10-24T19:25:51.289Z,83.21
2022-10-24T19:28:19.611Z,82.66
2022-10-24T19:30:47.181Z,82.07
2022-10-24T19:33:14.553Z,82.02
2022-10-24T19:35:46.321Z,81.95
2022-10-24T19:38:17.217Z,82.30
2022-10-24T19:40:49.165Z,83.31
2022-10-24T19:43:15.764Z,85.07
2022-10-24T19:45:50.154Z,86.67
2022-10-24T19:48:17.906Z,87.50
2022-10-24T19:50:44.721Z,87.82
2022-10-24T19:53:13.695Z,89.51
2022-10-24T19:55:40.894Z,91.35
2022-10-24T19:58:12.186Z,92.63
2022-10-24T20:00:40.762Z,94.69
2022-10-24T20:03:07.538Z,97.32
2022-10-24T20:05:35.559Z,99.08
2022-10-24T20:08:02.166Z,99.65
2022-10-24T20:10:28.934Z,100.00
2022-10-24T20:12:55.946Z,100.00
2022-10-24T20:15:22.618Z,100.00
2022-10-24T20:17:49.469Z,100.00
2022-10-24T20:20:18.071Z,100.00
2022-10-24T20:22:45.850Z,100.00
2022-10-24T20:25:12.897Z,100.00
2022-10-24T20:27:40.078Z,100.00
2022-10-24T20:30:07.658Z,100.00
2022-10-24T20:32:34.298Z,100.00
2022-10-24T20:35:01.153Z,100.00
2022-10-24T20:37:27.885Z,100.00
2022-10-24T20:39:54.467Z,100.00
2022-10-24T20:42:21.752Z,100.00
2022-10-24T20:44:48.383Z,100.00
2022-10-24T20:47:15.056Z,100.00
2022-10-24T20:49:41.675Z,100.00
2022-10-24T20:52:08.372Z,100.00
2022-10-24T20:54:34.979Z,100.00
2022-10-24T20:57:01.644Z,100.00
2022-10-24T20:59:28.205Z,100.00
2022-10-24T21:01:54.895Z,100.00
2022-10-24T21:04:21.719Z,100.00
2022-10-24T21:06:48.430Z,100.00
2022-10-24T21:09:15.024Z,100.00
2022-10-24T21:11:41.765Z,100.00
2022-10-24T21:14:11.818Z,100.00
2022-10-24T21:16:38.709Z,100.00
2022-10-24T21:19:05.358Z,100.00
2022-10-24T21:21:32.156Z,100.00
2022-10-24T21:24:04.372Z,100.00
2022-10-24T21:26:33.765Z,100.00
2022-10-24T21:29:08.952Z,100.00
2022-10-24T21:31:41.680Z,100.00
2022-10-24T21:34:08.277Z,100.00
2022-10-24T21:36:34.895Z,100.00
2022-10-24T21:39:01.713Z,100.00
2022-10-24T21:41:28.344Z,100.00
2022-10-24T21:43:54.957Z,100.00
2022-10-24T21:46:26.395Z,100.00
2022-10-24T21:48:54.827Z,100.00
2022-10-24T21:51:25.452Z,100.00
2022-10-24T21:54:07.156Z,100.00
2022-10-24T21:56:36.409Z,100.00
2022-10-24T21:59:06.366Z,100.00
2022-10-24T22:01:35.799Z,100.00
2022-10-24T22:04:04.378Z,100.00
2022-10-24T22:06:32.475Z,100.00
2022-10-24T22:08:59.198Z,100.00
2022-10-24T22:11:28.919Z,100.00
2022-10-24T22:13:56.021Z,100.00
2022-10-24T22:16:25.140Z,100.00
2022-10-24T22:18:52.373Z,100.00
2022-10-24T22:21:25.074Z,100.00
2022-10-24T22:23:52.187Z,100.00
2022-10-24T22:26:18.879Z,100.00
2022-10-24T22:28:45.591Z,100.00
2022-10-24T22:31:13.731Z,100.00
2022-10-24T22:33:41.773Z,100.00
2022-10-24T22:36:29.849Z,100.00
2022-10-24T22:38:56.641Z,100.00
2022-10-24T22:41:24.724Z,100.00
2022-10-24T22:43:51.728Z,100.00
2022-10-24T22:46:58.017Z,100.00
2022-10-24T22:49:30.459Z,100.00
2022-10-24T22:51:57.311Z,100.00
2022-10-24T22:54:24.968Z,100.00
2022-10-24T22:56:52.055Z,100.00
2022-10-24T22:59:19.057Z,100.00
2022-10-24T23:02:10.461Z,100.00
2022-10-24T23:05:00.295Z,100.00
2022-10-24T23:07:45.301Z,100.00
2022-10-24T23:10:18.895Z,100.00
2022-10-24T23:12:47.128Z,100.00
2022-10-24T23:15:15.969Z,100.00
2022-10-24T23:17:44.165Z,100.00
2022-10-24T23:20:22.724Z,100.00
2022-10-24T23:22:58.109Z,100.00
2022-10-24T23:25:36.071Z,100.00
2022-10-24T23:28:46.661Z,100.00
2022-10-24T23:31:13.544Z,100.00
2022-10-24T23:33:40.416Z,100.00
2022-10-24T23:36:19.222Z,100.00
2022-10-24T23:38:46.855Z,100.00
2022-10-24T23:41:13.730Z,100.00
2022-10-24T23:43:40.638Z,100.00
2022-10-24T23:46:31.777Z,100.00
2022-10-24T23:49:33.647Z,100.00
2022-10-24T23:52:34.809Z,100.00
2022-10-24T23:55:02.045Z,100.00
2022-10-24T23:57:28.838Z,100.00
2022-10-24T23:59:55.425Z,100.00
